Time;durP1;ratioP1;P1;durP2;ratioP2;P2;SDS_P1;SDS_P2;PMS_P1;PMS_P2;Temp;Humidity;BMP_temperature;BMP_pressure;BME280_temperature;BME280_humidity;BME280_pressure;Samples;Min_cycle;Max_cycle;Signal;HPM_P1;HPM_P2
2023/05/28 00:02:15;;;;;;;25.40;6.82;;;13.40;99.90;;;;;;5108375;28;20040;-75
2023/05/28 00:04:41;;;;;;;20.02;6.47;;;13.40;99.90;;;;;;5109587;28;20388;-74
2023/05/28 00:07:06;;;;;;;19.70;6.20;;;13.40;99.90;;;;;;5108846;28;20043;-75
2023/05/28 00:09:32;;;;;;;21.38;6.18;;;13.30;99.90;;;;;;5107070;28;20063;-72
2023/05/28 00:11:58;;;;;;;22.15;6.22;;;13.20;99.90;;;;;;5102118;28;20051;-72
2023/05/28 00:14:24;;;;;;;21.63;6.18;;;13.20;99.90;;;;;;5109113;28;20146;-72
2023/05/28 00:16:51;;;;;;;18.27;6.68;;;13.10;99.90;;;;;;5083938;28;20048;-72
2023/05/28 00:19:17;;;;;;;21.42;6.78;;;13.10;99.90;;;;;;5111920;27;20051;-72
2023/05/28 00:21:42;;;;;;;20.17;6.20;;;13.00;99.90;;;;;;5113071;28;20447;-72
2023/05/28 00:24:08;;;;;;;20.92;7.15;;;13.00;99.90;;;;;;5099189;28;20101;-73
2023/05/28 00:26:34;;;;;;;18.90;6.53;;;13.00;99.90;;;;;;5110167;28;20051;-72
2023/05/28 00:29:00;;;;;;;23.83;6.25;;;12.90;99.90;;;;;;5094603;28;20067;-72
2023/05/28 00:31:25;;;;;;;22.98;6.57;;;12.90;99.90;;;;;;5092578;28;20048;-72
2023/05/28 00:33:51;;;;;;;19.00;6.10;;;12.90;99.90;;;;;;5107695;28;20047;-72
2023/05/28 00:36:17;;;;;;;21.15;6.28;;;12.80;99.90;;;;;;5111448;28;20039;-72
2023/05/28 00:38:43;;;;;;;16.38;6.28;;;12.70;99.90;;;;;;5115860;27;20101;-72
2023/05/28 00:41:08;;;;;;;19.38;5.93;;;12.70;99.90;;;;;;5100508;28;20073;-72
2023/05/28 00:43:35;;;;;;;19.35;5.57;;;12.60;99.90;;;;;;5097689;28;20576;-72
2023/05/28 00:46:03;;;;;;;16.60;5.78;;;12.60;99.90;;;;;;5129891;27;20043;-72
2023/05/28 00:48:30;;;;;;;14.88;5.47;;;12.60;99.90;;;;;;5110142;28;20106;-71
2023/05/28 00:50:58;;;;;;;25.77;6.68;;;12.50;99.90;;;;;;5112518;28;20075;-72
2023/05/28 00:53:25;;;;;;;19.83;6.10;;;12.50;99.90;;;;;;5076899;28;20043;-72
2023/05/28 00:55:52;;;;;;;19.83;6.45;;;12.40;99.90;;;;;;5123199;27;20059;-72
2023/05/28 00:58:19;;;;;;;15.85;6.15;;;12.40;99.90;;;;;;5108239;28;20051;-72
2023/05/28 01:00:45;;;;;;;19.40;6.55;;;12.40;99.90;;;;;;5112519;28;20050;-72
2023/05/28 01:03:12;;;;;;;18.35;6.32;;;12.40;99.90;;;;;;5086921;28;20145;-71
2023/05/28 01:05:38;;;;;;;21.42;6.53;;;12.40;99.90;;;;;;5099781;27;20101;-71
2023/05/28 01:08:05;;;;;;;;;;;12.30;99.90;;;;;;5110734;28;20043;-71
2023/05/28 01:10:31;;;;;;;18.00;6.22;;;12.30;99.90;;;;;;5115122;27;19977;-71
2023/05/28 01:12:58;;;;;;;20.88;6.40;;;12.30;99.90;;;;;;5128938;27;20050;-71
2023/05/28 01:15:25;;;;;;;17.38;6.38;;;12.30;99.90;;;;;;5122612;27;20559;-70
2023/05/28 01:17:57;;;;;;;19.17;5.50;;;12.30;99.90;;;;;;5111266;27;20122;-70
2023/05/28 01:20:24;;;;;;;21.55;5.75;;;12.20;99.90;;;;;;5114542;27;20106;-70
2023/05/28 01:22:55;;;;;;;22.08;6.55;;;12.20;99.90;;;;;;5103999;28;21486;-70
2023/05/28 01:25:22;;;;;;;19.77;6.43;;;12.20;99.90;;;;;;5102156;28;20600;-71
2023/05/28 01:27:48;;;;;;;20.75;6.15;;;12.20;99.90;;;;;;5111475;28;20450;-70
2023/05/28 01:30:14;;;;;;;18.73;6.03;;;12.20;99.90;;;;;;5111910;28;20039;-71
2023/05/28 01:32:40;;;;;;;19.60;6.20;;;12.20;99.90;;;;;;5127928;27;20503;-70
2023/05/28 01:35:08;;;;;;;18.92;6.43;;;12.20;99.90;;;;;;5110690;28;20655;-71
2023/05/28 01:37:39;;;;;;;24.25;6.07;;;12.20;99.90;;;;;;5111291;28;20048;-71
2023/05/28 01:40:08;;;;;;;17.23;5.85;;;12.20;99.90;;;;;;5110110;28;20044;-72
2023/05/28 01:42:34;;;;;;;21.27;6.47;;;12.20;99.90;;;;;;5099380;28;20044;-71
2023/05/28 01:45:03;;;;;;;17.33;5.57;;;12.20;99.90;;;;;;5106307;28;20046;-71
2023/05/28 01:47:29;;;;;;;19.40;6.53;;;12.20;99.90;;;;;;5128928;27;20047;-71
2023/05/28 01:49:55;;;;;;;16.08;6.43;;;12.10;99.90;;;;;;5122825;27;20047;-72
2023/05/28 01:52:21;;;;;;;19.77;6.85;;;12.10;99.90;;;;;;5111289;28;20525;-73
2023/05/28 01:54:47;;;;;;;20.85;8.20;;;12.00;99.90;;;;;;5111166;28;20528;-71
2023/05/28 01:57:13;;;;;;;14.23;5.85;;;12.00;99.90;;;;;;5111333;28;20130;-72
2023/05/28 01:59:38;;;;;;;22.50;6.57;;;11.90;99.90;;;;;;5110914;28;20043;-72
2023/05/28 02:02:05;;;;;;;18.77;6.53;;;11.90;99.90;;;;;;5111623;28;20054;-72
2023/05/28 02:04:31;;;;;;;19.27;6.18;;;11.80;99.90;;;;;;5109214;28;20035;-72
2023/05/28 02:06:58;;;;;;;22.80;6.15;;;11.80;99.90;;;;;;5109527;28;20070;-73
2023/05/28 02:09:23;;;;;;;16.67;5.93;;;11.80;99.90;;;;;;5083071;28;20191;-72
2023/05/28 02:11:49;;;;;;;19.42;6.70;;;11.70;99.90;;;;;;5051068;28;20541;-72
2023/05/28 02:14:15;;;;;;;19.27;7.18;;;11.70;99.90;;;;;;5064869;28;20044;-72
2023/05/28 02:16:48;;;;;;;19.55;6.85;;;11.60;99.90;;;;;;5061513;28;20115;-72
2023/05/28 02:19:15;;;;;;;17.70;6.20;;;11.60;99.90;;;;;;5051785;28;20093;-72
2023/05/28 02:21:40;;;;;;;21.63;6.45;;;11.60;99.90;;;;;;5050006;28;20041;-72
2023/05/28 02:24:06;;;;;;;20.42;6.75;;;11.60;99.90;;;;;;5069267;28;20055;-72
2023/05/28 02:26:32;;;;;;;24.45;7.47;;;11.60;99.90;;;;;;5053526;28;20422;-72
2023/05/28 02:28:58;;;;;;;23.45;7.30;;;11.50;99.90;;;;;;5062798;28;20040;-72
2023/05/28 02:31:24;;;;;;;21.85;7.38;;;11.50;99.90;;;;;;5075495;28;20069;-73
2023/05/28 02:33:50;;;;;;;23.27;6.85;;;;;;;;;;5066991;28;20045;-72
2023/05/28 02:36:16;;;;;;;23.73;7.35;;;;;;;;;;5053504;28;20079;-72
2023/05/28 02:38:43;;;;;;;26.77;7.32;;;;;;;;;;5064043;28;20485;-72
2023/05/28 02:41:09;;;;;;;21.40;7.10;;;;;;;;;;5062467;28;20490;-72
2023/05/28 02:43:35;;;;;;;25.52;8.40;;;;;;;;;;5069112;28;20095;-72
2023/05/28 02:46:01;;;;;;;22.02;7.55;;;;;;;;;;5069870;28;20048;-72
2023/05/28 02:48:28;;;;;;;25.63;8.27;;;;;;;;;;5050963;28;20041;-72
2023/05/28 02:50:54;;;;;;;24.02;7.40;;;;;;;;;;5053064;28;20406;-72
2023/05/28 02:53:20;;;;;;;21.48;7.25;;;;;;;;;;5069650;28;20132;-72
2023/05/28 02:55:47;;;;;;;20.38;7.43;;;;;;;;;;5069268;28;20048;-72
2023/05/28 02:58:13;;;;;;;;;;;;;;;;;;5069986;28;20383;-72
2023/05/28 03:00:39;;;;;;;23.70;7.43;;;;;;;;;;5069586;28;20334;-73
2023/05/28 03:03:06;;;;;;;19.77;7.68;;;;;;;;;;5064951;28;20051;-72
2023/05/28 03:05:32;;;;;;;26.20;9.98;;;;;;;;;;5032914;28;20049;-72
2023/05/28 03:08:01;;;;;;;31.52;11.45;;;;;;;;;;5046990;28;20457;-72
2023/05/28 03:10:27;;;;;;;20.75;8.00;;;;;;;;;;5080301;28;20193;-73
2023/05/28 03:12:53;;;;;;;26.20;8.43;;;;;;;;;;5097936;28;20052;-72
2023/05/28 03:15:19;;;;;;;22.80;8.32;;;;;;;;;;5089960;28;20040;-72
2023/05/28 03:17:45;;;;;;;17.38;7.20;;;;;;;;;;5086673;28;20485;-72
2023/05/28 03:20:12;;;;;;;21.08;7.45;;;;;;;;;;5089151;28;20569;-72
2023/05/28 03:22:38;;;;;;;;;;;;;;;;;;5107736;27;20051;-72
2023/05/28 03:25:05;;;;;;;18.33;7.45;;;;;;;;;;5089861;28;19920;-72
2023/05/28 03:27:31;;;;;;;25.70;7.63;;;;;;;;;;5089188;28;20913;-73
2023/05/28 03:29:57;;;;;;;;;;;;;;;;;;5090098;28;20094;-72
2023/05/28 03:32:24;;;;;;;25.85;8.10;;;;;;;;;;5106855;28;19967;-72
2023/05/28 03:34:50;;;;;;;28.88;8.20;;;;;;;;;;5107255;28;20040;-72
2023/05/28 03:37:16;;;;;;;26.83;7.57;;;;;;;;;;5106428;28;20048;-72
2023/05/28 03:39:42;;;;;;;;;;;;;;;;;;5106634;28;20489;-72
2023/05/28 03:42:08;;;;;;;20.00;7.00;;;;;;;;;;5106762;28;19923;-72
2023/05/28 03:44:34;;;;;;;19.63;6.65;;;;;;;;;;5092342;28;20100;-73
2023/05/28 03:47:01;;;;;;;21.85;6.90;;;;;;;;;;5113027;28;20062;-72
2023/05/28 03:49:27;;;;;;;;;;;;;;;;;;5112956;28;20051;-72
2023/05/28 03:51:53;;;;;;;26.58;7.65;;;;;;;;;;5096709;28;20180;-72
2023/05/28 03:54:19;;;;;;;18.10;7.57;;;;;;;;;;5114137;28;20042;-72
2023/05/28 03:56:45;;;;;;;;;;;;;;;;;;5110980;28;20040;-72
2023/05/28 03:59:11;;;;;;;20.88;6.93;;;;;;;;;;5134173;27;19920;-72
2023/05/28 04:01:37;;;;;;;18.98;6.68;;;;;;;;;;5093263;28;20105;-72
2023/05/28 04:04:03;;;;;;;24.25;6.60;;;;;;;;;;5108365;28;20173;-72
2023/05/28 04:06:31;;;;;;;23.50;7.70;;;;;;;;;;5129248;27;20093;-72
2023/05/28 04:08:57;;;;;;;26.42;7.32;;;;;;;;;;5147398;27;20119;-72
2023/05/28 04:11:24;;;;;;;;;;;;;;;;;;5114264;28;20496;-72
2023/05/28 04:13:53;;;;;;;27.45;7.32;;;;;;;;;;5095803;28;19998;-72
2023/05/28 04:16:22;;;;;;;25.98;8.00;;;;;;;;;;5130427;27;20095;-72
2023/05/28 04:18:49;;;;;;;22.33;7.47;;;;;;;;;;5145664;27;20054;-73
2023/05/28 04:21:15;;;;;;;22.50;7.05;;;;;;;;;;5112502;28;20044;-73
2023/05/28 04:23:41;;;;;;;17.90;6.93;;;;;;;;;;5130100;27;20130;-72
2023/05/28 04:26:07;;;;;;;26.90;7.03;;;;;;;;;;5111061;27;20055;-72
2023/05/28 04:28:33;;;;;;;;;;;;;;;;;;5110270;28;20074;-73
2023/05/28 04:31:01;;;;;;;21.95;6.55;;;;;;;;;;5102939;28;19923;-72
2023/05/28 04:33:30;;;;;;;19.00;6.53;;;;;;;;;;5120779;27;20123;-72
2023/05/28 04:35:57;;;;;;;21.80;6.95;;;;;;;;;;5094824;28;20047;-72
2023/05/28 04:38:23;;;;;;;19.25;6.72;;;;;;;;;;5096256;28;20052;-72
2023/05/28 04:40:49;;;;;;;23.23;6.80;;;;;;;;;;5095875;28;20047;-72
2023/05/28 04:43:16;;;;;;;26.42;7.35;;;;;;;;;;5113089;28;20832;-72
2023/05/28 04:45:43;;;;;;;19.85;7.60;;;;;;;;;;5109685;28;20097;-73
2023/05/28 04:48:10;;;;;;;25.05;7.63;;;;;;;;;;5145782;27;20048;-72
2023/05/28 04:50:36;;;;;;;20.30;6.93;;;;;;;;;;5116378;27;20063;-72
2023/05/28 04:53:02;;;;;;;20.63;7.15;;;;;;;;;;5086682;28;20051;-72
2023/05/28 04:55:28;;;;;;;23.15;6.72;;;;;;;;;;5092457;28;20542;-72
2023/05/28 04:57:55;;;;;;;21.98;7.70;;;;;;;;;;5076123;28;20067;-73
2023/05/28 05:00:21;;;;;;;;;;;;;;;;;;5112321;28;20508;-72
2023/05/28 05:02:47;;;;;;;20.63;6.88;;;;;;;;;;5111134;28;19923;-73
2023/05/28 05:05:14;;;;;;;23.65;6.55;;;;;;;;;;5146445;27;20092;-72
2023/05/28 05:07:40;;;;;;;24.63;6.97;;;;;;;;;;5105096;28;20083;-72
2023/05/28 05:10:08;;;;;;;20.05;7.35;;;;;;;;;;5095364;28;20052;-72
2023/05/28 05:12:34;;;;;;;16.88;6.82;;;;;;;;;;5134868;27;20055;-72
2023/05/28 05:15:00;;;;;;;;;;;;;;;;;;5112312;28;20040;-72
2023/05/28 05:17:26;;;;;;;24.58;6.57;;;;;;;;;;5111497;28;19920;-72
2023/05/28 05:19:52;;;;;;;25.70;7.55;;;;;;;;;;5094145;28;20131;-72
2023/05/28 05:22:18;;;;;;;;;;;;;;;;;;5095700;28;20481;-72
2023/05/28 05:24:45;;;;;;;18.30;6.85;;;;;;;;;;5112264;28;19926;-74
2023/05/28 05:27:11;;;;;;;18.42;6.53;;;;;;;;;;5109491;28;20055;-72
2023/05/28 05:29:37;;;;;;;22.73;7.50;;;;;;;;;;5112174;28;20142;-72
2023/05/28 05:32:03;;;;;;;25.52;7.88;;;;;;;;;;5111957;28;20047;-72
2023/05/28 05:34:29;;;;;;;;;;;;;;;;;;5107477;28;20124;-72
2023/05/28 05:36:55;;;;;;;23.00;6.80;;;;;;;;;;5099226;28;19924;-72
2023/05/28 05:39:21;;;;;;;19.05;6.95;;;;;;;;;;5112168;28;20055;-72
2023/05/28 05:41:47;;;;;;;19.85;6.75;;;12.70;99.90;;;;;;5126933;27;20046;-72
2023/05/28 05:44:13;;;;;;;21.70;7.30;;;12.70;99.90;;;;;;5099375;28;20048;-72
2023/05/28 05:46:38;;;;;;;23.33;7.78;;;12.80;99.90;;;;;;5128595;27;20039;-72
2023/05/28 05:49:04;;;;;;;20.15;7.20;;;12.80;99.90;;;;;;5106032;28;20119;-72
2023/05/28 05:51:32;;;;;;;21.58;8.43;;;12.90;99.90;;;;;;5095547;28;20478;-73
2023/05/28 05:53:58;;;;;;;22.67;7.57;;;12.90;99.90;;;;;;5107657;28;20125;-72
2023/05/28 05:56:25;;;;;;;23.38;7.28;;;13.00;99.90;;;;;;5125806;27;20611;-72
2023/05/28 05:58:51;;;;;;;19.00;6.45;;;13.10;99.90;;;;;;5090930;28;20198;-72
2023/05/28 06:01:17;;;;;;;16.88;6.97;;;13.10;99.90;;;;;;5108158;28;20135;-72
2023/05/28 06:03:43;;;;;;;17.05;6.32;;;13.10;99.90;;;;;;5129547;27;20055;-72
2023/05/28 06:06:09;;;;;;;21.15;6.13;;;13.20;99.90;;;;;;5093741;28;21096;-73
2023/05/28 06:08:35;;;;;;;18.85;7.22;;;13.20;99.90;;;;;;5110033;28;20080;-72
2023/05/28 06:11:02;;;;;;;;;;;13.30;99.90;;;;;;5110327;28;20135;-72
2023/05/28 06:13:28;;;;;;;21.83;6.60;;;13.40;99.90;;;;;;5110862;28;19920;-72
2023/05/28 06:15:54;;;;;;;19.23;6.53;;;13.50;99.90;;;;;;5127938;27;20093;-73
2023/05/28 06:18:21;;;;;;;23.80;6.13;;;13.60;99.90;;;;;;5099011;28;20070;-72
2023/05/28 06:20:49;;;;;;;20.58;5.95;;;13.60;99.90;;;;;;5105646;28;20079;-72
2023/05/28 06:23:15;;;;;;;14.77;5.35;;;13.70;99.90;;;;;;5124821;27;20139;-72
2023/05/28 06:25:41;;;;;;;19.23;6.13;;;13.80;99.90;;;;;;5125260;27;20051;-72
2023/05/28 06:28:07;;;;;;;;;;;13.80;99.90;;;;;;5124623;27;20090;-72
2023/05/28 06:30:32;;;;;;;16.02;5.40;;;13.90;99.90;;;;;;5107956;28;19967;-72
2023/05/28 06:32:58;;;;;;;18.88;6.20;;;14.00;99.90;;;;;;5074786;28;22313;-73
2023/05/28 06:35:24;;;;;;;19.33;5.20;;;14.10;99.90;;;;;;5124430;27;20048;-72
2023/05/28 06:37:50;;;;;;;18.33;5.15;;;14.20;99.90;;;;;;5124666;27;20500;-73
2023/05/28 06:40:16;;;;;;;15.60;5.60;;;14.30;99.90;;;;;;5124033;27;20055;-72
2023/05/28 06:42:41;;;;;;;19.23;5.57;;;14.40;99.90;;;;;;5094318;28;20044;-72
2023/05/28 06:45:07;;;;;;;18.08;5.00;;;14.50;99.90;;;;;;5127290;27;20043;-72
2023/05/28 06:47:33;;;;;;;15.25;4.95;;;14.60;99.90;;;;;;5109952;28;20058;-72
2023/05/28 06:49:59;;;;;;;14.23;4.10;;;14.70;99.90;;;;;;5109470;28;20048;-72
2023/05/28 06:52:26;;;;;;;14.85;5.57;;;14.90;99.90;;;;;;5110340;28;20043;-73
2023/05/28 06:54:52;;;;;;;16.35;5.07;;;15.00;99.90;;;;;;5143888;27;20055;-74
2023/05/28 06:57:18;;;;;;;13.18;4.88;;;15.10;99.90;;;;;;5124714;27;20051;-72
2023/05/28 06:59:44;;;;;;;14.82;4.97;;;15.20;99.90;;;;;;5127356;27;20484;-72
2023/05/28 07:02:09;;;;;;;17.55;4.93;;;15.20;99.90;;;;;;5109825;28;20127;-73
2023/05/28 07:04:35;;;;;;;11.38;4.57;;;15.30;99.90;;;;;;5091990;28;20485;-73
2023/05/28 07:07:01;;;;;;;;;;;15.30;99.90;;;;;;5093606;28;20043;-73
2023/05/28 07:09:27;;;;;;;14.30;5.10;;;15.40;99.90;;;;;;5110060;28;19920;-73
2023/05/28 07:11:53;;;;;;;16.05;5.32;;;15.30;99.90;;;;;;5109992;28;20051;-69
2023/05/28 07:14:18;;;;;;;15.07;5.00;;;15.30;99.90;;;;;;5109459;28;20040;-74
2023/05/28 07:16:44;;;;;;;17.17;4.70;;;15.40;99.90;;;;;;5107118;28;20043;-74
2023/05/28 07:19:10;;;;;;;12.63;4.72;;;15.40;99.90;;;;;;5107965;28;20044;-74
2023/05/28 07:21:37;;;;;;;13.60;4.78;;;15.50;99.90;;;;;;5127529;27;20116;-73
2023/05/28 07:24:05;;;;;;;18.25;4.70;;;15.50;99.90;;;;;;5126700;27;20083;-71
2023/05/28 07:26:31;;;;;;;18.70;5.15;;;;;;;;;;5127630;27;20503;-72
2023/05/28 07:28:57;;;;;;;19.00;5.15;;;;;;;;;;5109797;28;20073;-79
2023/05/28 07:31:23;;;;;;;18.48;4.70;;;;;;;;;;5110038;28;20074;-72
2023/05/28 07:33:49;;;;;;;;;;;;;;;;;;5092085;28;20146;-72
2023/05/28 07:36:15;;;;;;;17.00;4.78;;;;;;;;;;5109538;28;20015;-73
2023/05/28 07:38:42;;;;;;;13.52;4.80;;;;;;;;;;5107979;28;20048;-72
2023/05/28 07:41:08;;;;;;;12.60;4.47;;;;;;;;;;5073895;28;20119;-75
2023/05/28 07:43:34;;;;;;;14.02;4.40;;;;;;;;;;5106399;28;20036;-72
2023/05/28 07:46:00;;;;;;;;;;;;;;;;;;5089621;28;20083;-74
2023/05/28 07:48:26;;;;;;;14.13;4.57;;;;;;;;;;5088040;28;20355;-74
2023/05/28 07:50:53;;;;;;;11.93;4.65;;;;;;;;;;5101978;28;20109;-74
2023/05/28 07:53:19;;;;;;;10.70;4.38;;;;;;;;;;5105932;28;20048;-73
2023/05/28 07:55:45;;;;;;;17.45;5.07;;;;;;;;;;5101783;28;20044;-72
2023/05/28 07:58:12;;;;;;;13.98;4.57;;;;;;;;;;5088986;28;20148;-72
2023/05/28 08:00:39;;;;;;;13.75;4.53;;;;;;;;;;5072932;28;20056;-75
2023/05/28 08:03:05;;;;;;;17.45;4.93;;;;;;;;;;5078489;28;20048;-72
2023/05/28 08:05:31;;;;;;;;;;;;;;;;;;5090078;28;20133;-72
2023/05/28 08:07:57;;;;;;;15.50;5.13;;;;;;;;;;5086710;28;19920;-72
2023/05/28 08:10:23;;;;;;;16.25;4.85;;;;;;;;;;5096825;28;20062;-74
2023/05/28 08:12:50;;;;;;;;;;;;;;;;;;5100314;28;20072;-73
2023/05/28 08:15:16;;;;;;;14.82;4.28;;;;;;;;;;5105095;28;20016;-73
2023/05/28 08:17:42;;;;;;;14.45;4.80;;;;;;;;;;5122470;28;20139;-72
2023/05/28 08:20:09;;;;;;;21.02;5.40;;;;;;;;;;5105021;28;20497;-73
2023/05/28 08:22:36;;;;;;;13.70;4.38;;;;;;;;;;5134154;27;20055;-73
2023/05/28 08:25:02;;;;;;;13.50;4.65;;;;;;;;;;5109427;28;20043;-68
2023/05/28 08:27:28;;;;;;;12.23;4.53;;;;;;;;;;5110598;28;20123;-68
2023/05/28 08:29:54;;;;;;;;;;;;;;;;;;5110708;28;20101;-74
2023/05/28 08:32:21;;;;;;;15.27;4.90;;;;;;;;;;5105327;27;19974;-73
2023/05/28 08:34:47;;;;;;;;;;;;;;;;;;5097246;28;20085;-71
2023/05/28 08:37:13;;;;;;;19.03;5.13;;;;;;;;;;5112301;27;19931;-71
2023/05/28 08:39:40;;;;;;;16.20;4.85;;;;;;;;;;5112616;28;20285;-71
2023/05/28 08:42:06;;;;;;;14.15;4.97;;;;;;;;;;5109882;27;20047;-72
2023/05/28 08:44:32;;;;;;;15.05;5.00;;;;;;;;;;5091442;28;20063;-71
2023/05/28 08:47:00;;;;;;;15.88;5.20;;;;;;;;;;5116642;27;20127;-76
2023/05/28 08:49:32;;;;;;;16.65;5.03;;;;;;;;;;5137131;27;20055;-73
2023/05/28 08:52:01;;;;;;;15.85;5.28;;;;;;;;;;5097602;28;20047;-73
2023/05/28 08:54:28;;;;;;;19.75;5.22;;;;;;;;;;5099292;28;20143;-73
2023/05/28 08:56:55;;;;;;;14.65;4.82;;;;;;;;;;5121409;27;20400;-72
2023/05/28 08:59:23;;;;;;;18.30;4.68;;;;;;;;;;5107156;28;20488;-69
2023/05/28 09:01:50;;;;;;;14.00;4.72;;;;;;;;;;5113296;27;20043;-68
2023/05/28 09:04:16;;;;;;;13.23;4.55;;;;;;;;;;5111050;27;20043;-73
2023/05/28 09:06:42;;;;;;;14.00;4.15;;;;;;;;;;5112061;28;20035;-71
2023/05/28 09:09:09;;;;;;;;;;;;;;;;;;5146503;27;20374;-74
2023/05/28 09:11:35;;;;;;;11.48;4.70;;;;;;;;;;5112430;28;19931;-73
2023/05/28 09:14:01;;;;;;;;;;;;;;;;;;5112712;28;20134;-73
2023/05/28 09:16:27;;;;;;;13.77;5.00;;;;;;;;;;5093905;28;20038;-72
2023/05/28 09:18:53;;;;;;;;;;;;;;;;;;5110967;28;20051;-76
2023/05/28 09:21:20;;;;;;;18.23;5.10;;;;;;;;;;5111557;28;19924;-72
2023/05/28 09:23:50;;;;;;;14.00;4.38;;;;;;;;;;5132735;27;20122;-71
2023/05/28 09:26:19;;;;;;;16.00;4.88;;;;;;;;;;5090870;28;20048;-71
2023/05/28 09:28:46;;;;;;;16.88;4.70;;;;;;;;;;5100831;28;20047;-71
2023/05/28 09:31:12;;;;;;;16.85;5.43;;;;;;;;;;5112308;28;20092;-70
2023/05/28 09:33:44;;;;;;;14.75;4.88;;;;;;;;;;5141373;27;20047;-70
2023/05/28 09:36:11;;;;;;;17.88;5.05;;;;;;;;;;5150384;27;20116;-75
2023/05/28 09:38:40;;;;;;;15.55;5.63;;;;;;;;;;5104609;27;20484;-73
2023/05/28 09:41:18;;;;;;;16.38;5.00;;;;;;;;;;5111921;28;20067;-75
2023/05/28 09:43:44;;;;;;;16.85;5.00;;;;;;;;;;5104892;28;20086;-73
2023/05/28 09:46:11;;;;;;;16.90;5.05;;;;;;;;;;5112108;27;20040;-74
2023/05/28 09:48:36;;;;;;;;;;;;;;;;;;5111692;27;20044;-72
2023/05/28 09:51:04;;;;;;;18.73;5.25;;;;;;;;;;5111293;28;19927;-71
2023/05/28 09:53:34;;;;;;;12.88;5.05;;;;;;;;;;5097937;28;20122;-75
2023/05/28 09:56:00;;;;;;;13.40;4.60;;;;;;;;;;5092353;28;20055;-76
2023/05/28 09:58:36;;;;;;;12.25;5.20;;;;;;;;;;5107018;28;20055;-76
2023/05/28 10:01:09;;;;;;;13.70;5.10;;;;;;;;;;5108536;28;20129;-76
2023/05/28 10:03:37;;;;;;;13.70;4.93;;;;;;;;;;5091955;28;20055;-77
2023/05/28 10:06:05;;;;;;;15.63;4.65;;;;;;;;;;5112557;28;20043;-76
2023/05/28 10:08:37;;;;;;;13.07;4.80;;;;;;;;;;5140115;27;20036;-71
2023/05/28 10:11:13;;;;;;;14.85;5.05;;;;;;;;;;5108694;28;20488;-71
2023/05/28 10:13:40;;;;;;;12.02;4.90;;;;;;;;;;5104303;28;20127;-72
2023/05/28 10:16:06;;;;;;;11.60;5.00;;;;;;;;;;5094217;28;20640;-70
2023/05/28 10:18:33;;;;;;;12.60;4.82;;;;;;;;;;5110638;27;20228;-70
2023/05/28 10:20:59;;;;;;;12.35;4.60;;;;;;;;;;5113301;27;20488;-73
2023/05/28 10:23:26;;;;;;;12.00;4.88;;;;;;;;;;5103610;28;20047;-74
2023/05/28 10:25:52;;;;;;;17.52;5.28;;;;;;;;;;5098003;28;20358;-75
2023/05/28 10:28:20;;;;;;;14.32;4.75;;;;;;;;;;5118339;27;20050;-76
2023/05/28 10:30:46;;;;;;;14.95;4.95;;;;;;;;;;5101355;28;20495;-73
2023/05/28 10:33:15;;;;;;;13.55;5.18;;;;;;;;;;5103834;28;20516;-73
2023/05/28 10:35:53;;;;;;;14.10;5.25;;;;;;;;;;5100003;28;20067;-74
2023/05/28 10:38:19;;;;;;;11.13;4.80;;;;;;;;;;5142717;27;20057;-78
2023/05/28 10:40:45;;;;;;;;;;;;;;;;;;5109626;28;20054;-77
2023/05/28 10:43:31;;;;;;;11.98;4.65;;;;;;;;;;5108989;28;19930;-71
2023/05/28 10:45:57;;;;;;;14.70;5.60;;;;;;;;;;5102793;27;20051;-73
2023/05/28 10:48:23;;;;;;;13.68;4.68;;;;;;;;;;5140456;27;20119;-72
2023/05/28 10:50:57;;;;;;;11.80;4.68;;;;;;;;;;5110056;28;20134;-73
2023/05/28 10:53:25;;;;;;;13.45;5.05;;;;;;;;;;5107226;28;20124;-70
2023/05/28 10:55:53;;;;;;;12.88;4.90;;;;;;;;;;5090452;28;20047;-71
2023/05/28 10:58:25;;;;;;;15.73;4.55;;;;;;;;;;5122064;27;20044;-73
2023/05/28 11:00:51;;;;;;;13.30;4.88;;;;;;;;;;5088850;28;20216;-75
2023/05/28 11:03:18;;;;;;;13.02;5.20;;;;;;;;;;5103713;28;20082;-75
2023/05/28 11:05:45;;;;;;;13.75;4.72;;;;;;;;;;5101510;28;20067;-77
2023/05/28 11:08:11;;;;;;;14.30;4.63;;;;;;;;;;5138981;27;20055;-72
2023/05/28 11:10:37;;;;;;;20.38;5.63;;;;;;;;;;5108817;28;20058;-77
2023/05/28 11:13:04;;;;;;;13.18;4.72;;;;;;;;;;5109416;28;20052;-75
2023/05/28 11:15:30;;;;;;;13.80;5.07;;;;;;;;;;5135939;27;20131;-75
2023/05/28 11:17:56;;;;;;;17.83;4.70;;;;;;;;;;5076625;28;20051;-75
2023/05/28 11:20:27;;;;;;;12.48;4.55;;;;;;;;;;5138830;27;20043;-75
2023/05/28 11:22:53;;;;;;;13.48;5.10;;;;;;;;;;5111410;28;20081;-75
2023/05/28 11:25:21;;;;;;;12.23;4.80;;;;;;;;;;5109340;28;20720;-75
2023/05/28 11:27:50;;;;;;;12.93;4.22;;;;;;;;;;5144105;27;20366;-75
2023/05/28 11:30:17;;;;;;;10.80;4.53;;;;;;;;;;5144124;27;20051;-75
2023/05/28 11:32:44;;;;;;;12.15;4.50;;;;;;;;;;5091577;28;20105;-75
2023/05/28 11:35:11;;;;;;;16.83;4.57;;;;;;;;;;5143488;27;20035;-75
2023/05/28 11:37:38;;;;;;;11.60;4.28;;;;;;;;;;5143631;27;20062;-75
2023/05/28 11:40:05;;;;;;;11.75;4.32;;;;;;;;;;5092298;28;20496;-75
2023/05/28 11:42:33;;;;;;;11.77;4.50;;;;;;;;;;5112940;28;20049;-75
2023/05/28 11:44:59;;;;;;;11.55;4.47;;;;;;;;;;5092705;28;20048;-75
2023/05/28 11:47:26;;;;;;;10.75;4.32;;;;;;;;;;5108849;28;20508;-75
2023/05/28 11:49:52;;;;;;;12.35;4.63;;;;;;;;;;5119197;28;20047;-75
2023/05/28 11:52:19;;;;;;;13.15;4.00;;;;;;;;;;5110366;28;20123;-75
2023/05/28 11:54:46;;;;;;;10.18;4.05;;;;;;;;;;5137483;27;20077;-75
2023/05/28 11:57:25;;;;;;;10.50;3.90;;;;;;;;;;5109563;28;20484;-76
2023/05/28 12:00:11;;;;;;;11.13;4.25;;;;;;;;;;5092360;28;20404;-75
2023/05/28 12:02:47;;;;;;;12.35;3.90;;;;;;;;;;5140713;27;20067;-75
2023/05/28 12:05:13;;;;;;;11.25;3.92;;;;;;;;;;5082767;28;20065;-75
2023/05/28 12:07:45;;;;;;;9.93;3.97;;;;;;;;;;5120047;27;20058;-76
2023/05/28 12:10:12;;;;;;;10.27;4.07;;;;;;;;;;5114589;27;20502;-75
2023/05/28 12:12:45;;;;;;;9.07;3.65;;;;;;;;;;5124481;27;20059;-76
2023/05/28 12:15:12;;;;;;;9.75;3.47;;;;;;;;;;5130442;27;20486;-76
2023/05/28 12:17:39;;;;;;;12.07;4.00;;;;;;;;;;5112074;28;20040;-76
2023/05/28 12:20:09;;;;;;;9.30;4.00;;;;;;;;;;5111386;28;20477;-76
2023/05/28 12:22:35;;;;;;;8.85;3.55;;;;;;;;;;5143773;27;20067;-73
2023/05/28 12:25:02;;;;;;;6.35;3.20;;;;;;;;;;5122186;27;20075;-74
2023/05/28 12:27:28;;;;;;;7.97;3.22;;;;;;;;;;5121879;27;20054;-75
2023/05/28 12:29:54;;;;;;;8.23;3.35;;;;;;;;;;5121944;27;20039;-77
2023/05/28 12:32:21;;;;;;;7.13;3.60;;;;;;;;;;5116525;27;20481;-76
2023/05/28 12:34:47;;;;;;;7.38;3.22;;;;;;;;;;5124517;27;20492;-76
2023/05/28 12:37:13;;;;;;;7.47;3.60;;;;;;;;;;5121597;27;20043;-74
2023/05/28 12:39:39;;;;;;;7.30;3.20;;;;;;;;;;5120875;27;20832;-75
2023/05/28 12:42:05;;;;;;;6.88;3.30;;;;;;;;;;5121842;27;20108;-75
2023/05/28 12:44:31;;;;;;;7.53;3.40;;;;;;;;;;5113148;27;20043;-75
2023/05/28 12:46:58;;;;;;;5.70;3.17;;;;;;;;;;5112165;28;20055;-76
2023/05/28 12:49:24;;;;;;;6.05;3.10;;;;;;;;;;5093756;28;20085;-75
2023/05/28 12:51:50;;;;;;;8.70;3.22;;;;;;;;;;5111392;28;20092;-76
2023/05/28 12:54:16;;;;;;;6.82;3.30;;;;;;;;;;5103738;28;20124;-75
2023/05/28 12:56:42;;;;;;;6.55;3.30;;;;;;;;;;5110680;28;20075;-76
2023/05/28 12:59:10;;;;;;;6.90;3.20;;;;;;;;;;5109835;28;20373;-76
2023/05/28 13:01:36;;;;;;;7.32;3.40;;;;;;;;;;5111278;28;20047;-76
2023/05/28 13:04:02;;;;;;;9.30;3.42;;;;;;;;;;5111362;28;20047;-71
2023/05/28 13:06:28;;;;;;;7.63;3.22;;;;;;;;;;5112691;28;20515;-73
2023/05/28 13:08:55;;;;;;;7.18;3.97;;;;;;;;;;5112790;28;20044;-73
2023/05/28 13:11:21;;;;;;;6.22;3.70;;;;;;;;;;5110315;28;20051;-74
2023/05/28 13:13:47;;;;;;;7.18;3.92;;;;;;;;;;5111068;28;20047;-73
2023/05/28 13:16:14;;;;;;;6.20;3.95;;;;;;;;;;5113007;28;20080;-74
2023/05/28 13:18:40;;;;;;;7.88;3.53;;;;;;;;;;5109968;28;20039;-74
2023/05/28 13:21:06;;;;;;;8.68;3.80;;;;;;;;;;5112564;28;20434;-74
2023/05/28 13:23:32;;;;;;;7.20;3.83;;;;;;;;;;5109534;28;20051;-74
2023/05/28 13:25:59;;;;;;;5.68;3.50;;;;;;;;;;5111301;28;20131;-69
2023/05/28 13:28:25;;;;;;;6.88;3.35;;;;;;;;;;5112239;28;20059;-70
2023/05/28 13:30:51;;;;;;;7.45;3.72;;;;;;;;;;5110973;28;20039;-74
2023/05/28 13:33:17;;;;;;;5.40;3.53;;;;;;;;;;5109614;28;20052;-74
2023/05/28 13:35:43;;;;;;;6.20;3.55;;;;;;;;;;5102290;28;20080;-74
2023/05/28 13:38:09;;;;;;;6.47;3.40;;;;;;;;;;5111216;28;20051;-75
2023/05/28 13:40:36;;;;;;;5.65;3.13;;;;;;;;;;5110766;28;20058;-75
2023/05/28 13:43:02;;;;;;;7.57;3.42;;;;;;;;;;5110667;28;20042;-76
2023/05/28 13:45:28;;;;;;;5.70;3.10;;;;;;;;;;5110530;28;20035;-75
2023/05/28 13:47:54;;;;;;;6.13;3.13;;;;;;;;;;5109565;28;20637;-74
2023/05/28 13:50:20;;;;;;;5.05;2.90;;;;;;;;;;5093237;28;20128;-75
2023/05/28 13:52:46;;;;;;;5.18;2.60;;;;;;;;;;5110239;28;20040;-75
2023/05/28 13:55:13;;;;;;;7.15;2.95;;;;;;;;;;5094158;28;20048;-74
2023/05/28 13:57:39;;;;;;;5.72;2.80;;;;;;;;;;5110205;28;20042;-75
2023/05/28 14:00:07;;;;;;;6.82;3.15;;;;;;;;;;5110916;28;20396;-75